createdAt,value
2023-03-10T00:01:20.103Z,8.49
2023-03-10T00:03:47.662Z,8.39
2023-03-10T00:06:15.966Z,8.46
2023-03-10T00:08:43.783Z,8.41
2023-03-10T00:11:11.162Z,8.38
2023-03-10T00:13:38.659Z,8.31
2023-03-10T00:16:06.592Z,8.35
2023-03-10T00:18:34.091Z,8.45
2023-03-10T00:21:01.384Z,8.54
2023-03-10T00:23:28.758Z,8.42
2023-03-10T00:25:59.811Z,8.38
2023-03-10T00:28:27.253Z,8.49
2023-03-10T00:31:01.915Z,8.41
2023-03-10T00:33:31.095Z,8.54
2023-03-10T00:36:17.581Z,8.63
2023-03-10T00:38:45.393Z,8.49
2023-03-10T00:41:18.284Z,8.63
2023-03-10T00:43:45.645Z,8.48
2023-03-10T00:46:14.203Z,8.21
2023-03-10T00:48:41.652Z,8.11
2023-03-10T00:51:09.272Z,8.15
2023-03-10T00:53:38.052Z,8.21
2023-03-10T00:56:27.767Z,8.24
2023-03-10T00:58:56.813Z,8.35
2023-03-10T01:01:24.929Z,8.59
2023-03-10T01:03:56.677Z,8.70
2023-03-10T01:06:24.617Z,8.53
2023-03-10T01:08:52.468Z,8.43
2023-03-10T01:11:23.680Z,8.33
2023-03-10T01:13:51.282Z,8.38
2023-03-10T01:16:18.564Z,8.42
2023-03-10T01:18:46.011Z,8.41
2023-03-10T01:21:28.034Z,8.39
2023-03-10T01:23:55.417Z,8.33
2023-03-10T01:26:22.724Z,8.29
2023-03-10T01:28:50.610Z,8.22
2023-03-10T01:31:17.972Z,8.22
2023-03-10T01:33:45.829Z,8.29
2023-03-10T01:36:18.101Z,8.21
2023-03-10T01:38:46.771Z,8.04
2023-03-10T01:41:14.519Z,7.92
2023-03-10T01:43:43.222Z,7.83
2023-03-10T01:46:29.705Z,7.80
2023-03-10T01:49:02.143Z,7.94
2023-03-10T01:51:30.445Z,7.99
2023-03-10T01:53:57.829Z,7.97
2023-03-10T01:56:25.393Z,8.06
2023-03-10T01:58:52.697Z,7.99
2023-03-10T02:01:21.836Z,8.11
2023-03-10T02:03:52.483Z,8.08
2023-03-10T02:06:20.659Z,8.24
2023-03-10T02:08:53.441Z,8.25
2023-03-10T02:11:20.976Z,8.15
2023-03-10T02:13:50.519Z,8.25
2023-03-10T02:16:17.882Z,8.36
2023-03-10T02:18:47.339Z,8.31
2023-03-10T02:21:38.930Z,8.52
2023-03-10T02:24:19.367Z,8.46
2023-03-10T02:27:16.068Z,8.39
2023-03-10T02:30:11.518Z,8.18
2023-03-10T02:32:44.904Z,8.28
2023-03-10T02:35:12.669Z,8.25
2023-03-10T02:37:50.971Z,8.16
2023-03-10T02:40:37.787Z,8.21
2023-03-10T02:43:22.689Z,8.25
2023-03-10T02:45:55.958Z,8.15
2023-03-10T02:48:29.415Z,8.12
2023-03-10T02:50:57.192Z,8.12
2023-03-10T02:53:26.475Z,8.05
2023-03-10T02:55:54.651Z,8.15
2023-03-10T02:58:22.940Z,8.11
2023-03-10T03:00:50.419Z,8.02
2023-03-10T03:03:19.812Z,7.99
2023-03-10T03:05:47.784Z,7.99
2023-03-10T03:08:15.541Z,7.84
2023-03-10T03:10:42.939Z,7.87
2023-03-10T03:13:11.263Z,7.77
2023-03-10T03:15:38.904Z,7.78
2023-03-10T03:18:06.154Z,7.66
2023-03-10T03:20:36.194Z,7.57
2023-03-10T03:23:03.983Z,7.47
2023-03-10T03:25:35.138Z,7.50
2023-03-10T03:28:03.651Z,7.53
2023-03-10T03:30:31.064Z,7.52
2023-03-10T03:32:59.117Z,7.52
2023-03-10T03:35:32.222Z,7.59
2023-03-10T03:37:59.783Z,7.67
2023-03-10T03:40:28.006Z,7.67
2023-03-10T03:42:56.159Z,7.54
2023-03-10T03:45:25.396Z,7.47
2023-03-10T03:47:55.464Z,7.53
2023-03-10T03:50:23.762Z,7.60
2023-03-10T03:52:52.726Z,7.37
2023-03-10T03:55:22.578Z,7.11
2023-03-10T03:57:52.363Z,7.02
2023-03-10T04:00:21.433Z,6.94
2023-03-10T04:02:54.735Z,6.85
2023-03-10T04:05:22.066Z,6.95
2023-03-10T04:07:49.992Z,6.83
2023-03-10T04:10:20.895Z,6.87
2023-03-10T04:12:48.603Z,6.87
2023-03-10T04:15:16.093Z,6.84
2023-03-10T04:17:43.588Z,6.92
2023-03-10T04:20:13.609Z,6.81
2023-03-10T04:22:44.212Z,6.73
2023-03-10T04:25:12.119Z,6.80
2023-03-10T04:27:39.404Z,6.87
2023-03-10T04:30:08.355Z,6.71
2023-03-10T04:32:38.417Z,6.48
2023-03-10T04:35:06.316Z,6.58
2023-03-10T04:37:33.911Z,6.65
2023-03-10T04:40:03.423Z,6.67
2023-03-10T04:42:31.067Z,6.60
2023-03-10T04:44:58.586Z,6.29
2023-03-10T04:47:25.990Z,6.34
2023-03-10T04:49:53.357Z,6.32
2023-03-10T04:52:20.734Z,6.32
2023-03-10T04:54:49.232Z,6.46
2023-03-10T04:57:16.486Z,6.47
2023-03-10T04:59:44.926Z,6.55
2023-03-10T05:02:12.792Z,6.53
2023-03-10T05:04:40.830Z,6.61
2023-03-10T05:07:09.746Z,6.63
2023-03-10T05:09:42.757Z,6.55
2023-03-10T05:12:10.207Z,6.47
2023-03-10T05:14:37.869Z,6.37
2023-03-10T05:17:06.344Z,6.33
2023-03-10T05:19:34.952Z,6.34
2023-03-10T05:22:04.025Z,6.33
2023-03-10T05:24:34.200Z,6.24
2023-03-10T05:27:04.628Z,6.16
2023-03-10T05:29:32.865Z,6.06
2023-03-10T05:32:07.827Z,6.03
2023-03-10T05:34:38.744Z,5.99
2023-03-10T05:37:06.355Z,5.94
2023-03-10T05:39:34.763Z,5.96
2023-03-10T05:42:06.298Z,6.03
2023-03-10T05:44:35.317Z,6.03
2023-03-10T05:47:05.664Z,6.10
2023-03-10T05:49:33.222Z,6.23
2023-03-10T05:52:00.699Z,6.32
2023-03-10T05:54:28.454Z,6.27
2023-03-10T05:56:56.149Z,6.38
2023-03-10T05:59:27.139Z,6.44
2023-03-10T06:01:55.308Z,6.57
2023-03-10T06:04:22.903Z,6.53
2023-03-10T06:06:50.291Z,6.65
2023-03-10T06:09:17.597Z,6.81
2023-03-10T06:11:44.982Z,7.02
2023-03-10T06:14:12.292Z,7.05
2023-03-10T06:16:39.669Z,7.05
2023-03-10T06:19:07.116Z,7.19
2023-03-10T06:21:34.457Z,7.29
2023-03-10T06:24:01.933Z,7.37
2023-03-10T06:26:29.420Z,7.43
2023-03-10T06:28:57.112Z,7.52
2023-03-10T06:31:25.043Z,7.59
2023-03-10T06:33:53.992Z,7.78
2023-03-10T06:36:22.045Z,8.38
2023-03-10T06:38:49.691Z,9.15
2023-03-10T06:41:17.283Z,9.46
2023-03-10T06:43:44.933Z,9.86
2023-03-10T06:46:13.253Z,10.31
2023-03-10T06:48:41.247Z,10.72
2023-03-10T06:51:10.472Z,11.57
2023-03-10T06:53:38.468Z,12.59
2023-03-10T06:56:07.748Z,12.94
2023-03-10T06:58:39.179Z,13.51
2023-03-10T07:01:07.708Z,13.62
2023-03-10T07:03:35.870Z,14.37
2023-03-10T07:06:05.554Z,13.99
2023-03-10T07:08:32.984Z,14.04
2023-03-10T07:11:00.802Z,14.38
2023-03-10T07:13:28.304Z,13.45
2023-03-10T07:15:56.916Z,13.82
2023-03-10T07:18:27.965Z,14.51
2023-03-10T07:20:56.178Z,14.54
2023-03-10T07:23:24.309Z,14.57
2023-03-10T07:25:52.859Z,14.96
2023-03-10T07:28:20.328Z,15.11
2023-03-10T07:30:48.523Z,15.09
2023-03-10T07:33:16.536Z,15.79
2023-03-10T07:35:44.553Z,16.02
2023-03-10T07:38:12.149Z,15.71
2023-03-10T07:40:40.634Z,15.94
2023-03-10T07:43:08.075Z,16.02
2023-03-10T07:45:37.133Z,16.42
2023-03-10T07:48:05.190Z,16.47
2023-03-10T07:50:32.753Z,16.27
2023-03-10T07:53:00.286Z,15.97
2023-03-10T07:55:27.605Z,15.95
2023-03-10T07:57:56.992Z,15.57
2023-03-10T08:00:24.361Z,15.24
2023-03-10T08:02:51.918Z,14.92
2023-03-10T08:05:21.280Z,14.95
2023-03-10T08:07:49.156Z,14.75
2023-03-10T08:10:22.788Z,14.46
2023-03-10T08:12:53.156Z,14.78
2023-03-10T08:15:20.932Z,15.54
2023-03-10T08:17:48.565Z,15.62
2023-03-10T08:20:16.735Z,15.68
2023-03-10T08:22:44.253Z,16.02
2023-03-10T08:25:12.878Z,16.49
2023-03-10T08:27:41.723Z,16.84
2023-03-10T08:30:10.027Z,16.80
2023-03-10T08:32:38.700Z,17.03
2023-03-10T08:35:06.587Z,16.02
2023-03-10T08:37:38.684Z,14.38
2023-03-10T08:40:11.209Z,14.00
2023-03-10T08:42:39.172Z,13.80
2023-03-10T08:45:08.775Z,13.53
2023-03-10T08:47:36.778Z,13.65
2023-03-10T08:50:05.638Z,13.56
2023-03-10T08:52:33.320Z,13.65
2023-03-10T08:55:01.715Z,13.70
2023-03-10T08:57:32.763Z,13.70
2023-03-10T09:00:04.156Z,13.89
2023-03-10T09:02:39.745Z,14.09
2023-03-10T09:05:11.444Z,14.11
2023-03-10T09:07:40.344Z,14.30
2023-03-10T09:10:08.230Z,14.45
2023-03-10T09:12:39.140Z,14.68
2023-03-10T09:15:07.663Z,14.57
2023-03-10T09:17:35.044Z,14.37
2023-03-10T09:20:02.730Z,14.34
2023-03-10T09:22:30.284Z,14.20
2023-03-10T09:25:00.585Z,14.14
2023-03-10T09:27:32.133Z,14.20
2023-03-10T09:30:01.455Z,14.17
2023-03-10T09:32:29.955Z,14.57
2023-03-10T09:34:57.865Z,14.73
2023-03-10T09:37:25.502Z,15.06
2023-03-10T09:39:53.901Z,15.30
2023-03-10T09:42:37.811Z,15.30
2023-03-10T09:45:14.913Z,15.43
2023-03-10T09:47:50.836Z,15.50
2023-03-10T09:50:41.857Z,15.61
2023-03-10T09:53:30.721Z,16.15
2023-03-10T09:55:58.145Z,16.13
2023-03-10T09:58:56.977Z,16.55
2023-03-10T10:01:26.144Z,16.67
2023-03-10T10:03:55.667Z,16.92
2023-03-10T10:06:38.730Z,17.07
2023-03-10T10:09:17.957Z,16.80
2023-03-10T10:11:45.924Z,16.88
2023-03-10T10:14:28.780Z,16.63
2023-03-10T10:17:19.715Z,16.50
2023-03-10T10:20:09.329Z,16.30
2023-03-10T10:22:38.384Z,16.46
2023-03-10T10:25:08.914Z,16.47
2023-03-10T10:27:40.757Z,16.37
2023-03-10T10:30:34.378Z,16.85
2023-03-10T10:33:13.217Z,17.22
2023-03-10T10:36:00.616Z,17.69
2023-03-10T10:38:30.221Z,17.65
2023-03-10T10:41:07.441Z,17.67
2023-03-10T10:43:43.612Z,17.80
2023-03-10T10:46:12.168Z,18.08
2023-03-10T10:48:46.959Z,18.03
2023-03-10T10:51:28.171Z,18.23
2023-03-10T10:54:06.381Z,17.94
2023-03-10T10:56:34.250Z,18.13
2023-03-10T10:59:04.449Z,18.42
2023-03-10T11:02:00.822Z,17.98
2023-03-10T11:04:31.753Z,18.18
2023-03-10T11:07:17.433Z,18.21
2023-03-10T11:09:45.098Z,18.14
2023-03-10T11:12:20.129Z,18.47
2023-03-10T11:15:23.684Z,17.86
2023-03-10T11:17:56.632Z,18.28
2023-03-10T11:20:31.346Z,18.10
2023-03-10T11:23:17.859Z,18.07
2023-03-10T11:26:20.949Z,18.23
2023-03-10T11:28:54.397Z,18.25
2023-03-10T11:31:25.718Z,18.25
2023-03-10T11:34:11.795Z,18.32
2023-03-10T11:36:56.772Z,18.45
2023-03-10T11:39:36.901Z,18.79
2023-03-10T11:42:10.504Z,19.20
2023-03-10T11:44:54.002Z,19.26
2023-03-10T11:47:30.274Z,19.20
2023-03-10T11:50:15.720Z,19.31
2023-03-10T11:52:43.314Z,18.93
2023-03-10T11:55:21.279Z,18.66
2023-03-10T11:58:28.668Z,18.69
2023-03-10T12:00:59.892Z,18.49
2023-03-10T12:03:38.006Z,18.93
2023-03-10T12:06:06.537Z,18.81
2023-03-10T12:08:38.985Z,18.79
2023-03-10T12:11:13.972Z,18.48
2023-03-10T12:16:58.062Z,17.96
2023-03-10T12:19:25.745Z,18.04
2023-03-10T12:22:22.313Z,18.15
2023-03-10T12:24:50.984Z,18.13
2023-03-10T12:27:18.560Z,18.15
2023-03-10T12:29:46.878Z,18.81
2023-03-10T12:32:43.321Z,18.51
2023-03-10T12:35:29.610Z,18.35
2023-03-10T12:38:29.238Z,18.44
2023-03-10T12:40:57.382Z,18.52
2023-03-10T12:43:56.588Z,18.38
2023-03-10T12:46:40.683Z,18.56
2023-03-10T12:49:20.962Z,18.35
2023-03-10T12:51:51.803Z,18.28
2023-03-10T12:54:39.508Z,18.35
2023-03-10T12:57:31.164Z,18.24
2023-03-10T13:00:00.185Z,18.11
2023-03-10T13:02:38.984Z,17.96
2023-03-10T13:05:08.304Z,17.86
2023-03-10T13:07:35.681Z,18.08
2023-03-10T13:10:03.643Z,18.05
2023-03-10T13:12:40.289Z,17.98
2023-03-10T13:15:24.953Z,18.08
2023-03-10T13:17:55.351Z,18.15
2023-03-10T13:20:22.898Z,18.23
2023-03-10T13:22:54.926Z,18.18
2023-03-10T13:25:22.612Z,18.11
2023-03-10T13:27:50.204Z,18.00
2023-03-10T13:30:20.192Z,18.20
2023-03-10T13:32:58.667Z,18.42
2023-03-10T13:35:36.208Z,18.55
2023-03-10T13:38:11.490Z,18.44
2023-03-10T13:40:47.223Z,18.52
2023-03-10T13:43:33.591Z,18.28
2023-03-10T13:46:01.356Z,18.40
2023-03-10T13:48:29.250Z,18.53
2023-03-10T13:51:16.474Z,18.21
2023-03-10T13:53:44.454Z,18.34
2023-03-10T13:56:20.324Z,18.65
2023-03-10T13:58:48.016Z,18.69
2023-03-10T14:01:35.041Z,18.58
2023-03-10T14:04:08.999Z,18.56
2023-03-10T14:06:36.748Z,18.58
2023-03-10T14:09:36.578Z,18.47
2023-03-10T14:12:04.282Z,18.45
2023-03-10T14:14:33.248Z,18.44
2023-03-10T14:17:04.864Z,18.92
2023-03-10T14:19:43.979Z,18.85
2023-03-10T14:22:42.161Z,18.83
2023-03-10T14:25:20.004Z,18.76
2023-03-10T14:28:06.821Z,18.83
2023-03-10T14:30:34.287Z,18.95
2023-03-10T14:33:02.139Z,18.93
2023-03-10T14:35:29.706Z,18.59
2023-03-10T14:37:57.013Z,18.23
2023-03-10T14:40:24.736Z,18.32
2023-03-10T14:42:52.666Z,17.80
2023-03-10T14:45:26.258Z,17.31
2023-03-10T14:47:55.075Z,17.22
2023-03-10T14:50:22.696Z,17.11
2023-03-10T14:52:50.174Z,17.15
2023-03-10T14:55:17.787Z,17.03
2023-03-10T14:57:46.090Z,16.74
2023-03-10T15:00:18.768Z,16.63
2023-03-10T15:02:46.909Z,16.43
2023-03-10T15:05:18.653Z,16.45
2023-03-10T15:07:46.114Z,16.32
2023-03-10T15:10:13.491Z,16.30
2023-03-10T15:12:41.180Z,16.27
2023-03-10T15:15:22.024Z,16.25
2023-03-10T15:17:49.884Z,16.12
2023-03-10T15:20:24.944Z,16.05
2023-03-10T15:22:52.393Z,15.95
2023-03-10T15:25:21.366Z,15.91
2023-03-10T15:27:49.820Z,15.89
2023-03-10T15:30:22.177Z,15.95
2023-03-10T15:32:52.499Z,15.87
2023-03-10T15:35:21.767Z,15.85
2023-03-10T15:37:49.529Z,15.92
2023-03-10T15:40:25.547Z,15.91
2023-03-10T15:42:53.213Z,15.87
2023-03-10T15:45:20.511Z,15.88
2023-03-10T15:47:48.726Z,15.94
2023-03-10T15:50:16.920Z,15.92
2023-03-10T15:52:51.939Z,15.74
2023-03-10T15:55:19.510Z,15.68
2023-03-10T15:57:50.236Z,15.68
2023-03-10T16:00:22.063Z,15.68
2023-03-10T16:02:49.916Z,15.58
2023-03-10T16:05:17.435Z,15.55
2023-03-10T16:07:44.835Z,15.41
2023-03-10T16:10:17.026Z,15.40
2023-03-10T16:12:44.464Z,15.48
2023-03-10T16:15:12.375Z,15.27
2023-03-10T16:17:40.078Z,15.13
2023-03-10T16:20:10.444Z,15.10
2023-03-10T16:22:41.571Z,14.83
2023-03-10T16:25:16.193Z,14.76
2023-03-10T16:27:44.392Z,14.64
2023-03-10T16:30:13.826Z,14.45
2023-03-10T16:32:45.322Z,14.37
2023-03-10T16:35:12.918Z,14.37
2023-03-10T16:37:40.164Z,14.38
2023-03-10T16:40:08.134Z,14.28
2023-03-10T16:42:39.015Z,14.16
2023-03-10T16:45:07.087Z,14.10
2023-03-10T16:47:34.480Z,14.10
2023-03-10T16:50:02.002Z,14.07
2023-03-10T16:52:29.343Z,13.94
2023-03-10T16:54:57.759Z,14.01
2023-03-10T16:57:25.103Z,14.07
2023-03-10T16:59:52.443Z,14.04
2023-03-10T17:02:19.747Z,14.00
2023-03-10T17:04:47.194Z,14.07
2023-03-10T17:07:14.537Z,14.16
2023-03-10T17:09:41.984Z,14.06
2023-03-10T17:12:09.356Z,14.11
2023-03-10T17:14:36.713Z,14.24
2023-03-10T17:19:51.808Z,14.34
2023-03-10T17:22:19.131Z,14.38
2023-03-10T17:24:46.604Z,14.42
2023-03-10T17:27:13.873Z,14.22
2023-03-10T17:29:41.225Z,14.10
2023-03-10T17:32:08.571Z,14.00
2023-03-10T17:34:35.988Z,14.06
2023-03-10T17:37:03.252Z,13.99
2023-03-10T17:39:30.912Z,13.82
2023-03-10T17:41:58.197Z,13.91
2023-03-10T17:44:25.720Z,13.73
2023-03-10T17:46:53.199Z,13.86
2023-03-10T17:49:20.493Z,13.80
2023-03-10T17:51:50.734Z,13.72
2023-03-10T17:54:22.727Z,13.35
2023-03-10T17:56:50.299Z,13.34
2023-03-10T17:59:17.800Z,13.31
2023-03-10T18:01:45.715Z,13.36
2023-03-10T18:04:13.220Z,13.26
2023-03-10T18:06:41.162Z,13.14
2023-03-10T18:09:11.524Z,13.19
2023-03-10T18:11:39.123Z,13.16
2023-03-10T18:14:06.555Z,13.05
2023-03-10T18:16:35.881Z,13.12
2023-03-10T18:19:04.199Z,13.00
2023-03-10T18:21:31.755Z,12.76
2023-03-10T18:23:59.034Z,12.79
2023-03-10T18:26:28.474Z,12.60
2023-03-10T18:28:55.766Z,12.47
2023-03-10T18:31:27.979Z,12.37
2023-03-10T18:33:55.457Z,12.39
2023-03-10T18:36:24.215Z,12.39
2023-03-10T18:38:51.758Z,12.30
2023-03-10T18:41:20.241Z,12.32
2023-03-10T18:43:47.647Z,12.29
2023-03-10T18:46:14.957Z,12.26
2023-03-10T18:48:42.356Z,12.08
2023-03-10T18:51:10.108Z,11.85
2023-03-10T18:53:37.456Z,11.65
2023-03-10T18:56:05.137Z,11.64
2023-03-10T18:58:33.215Z,11.61
2023-03-10T19:01:00.478Z,11.63
2023-03-10T19:03:29.330Z,11.75
2023-03-10T19:05:56.809Z,11.68
2023-03-10T19:08:25.738Z,11.57
2023-03-10T19:10:56.731Z,11.57
2023-03-10T19:13:24.985Z,11.51
2023-03-10T19:15:52.331Z,11.41
2023-03-10T19:18:19.832Z,11.47
2023-03-10T19:20:47.070Z,11.44
2023-03-10T19:23:14.941Z,11.40
2023-03-10T19:25:42.446Z,11.24
2023-03-10T19:28:09.945Z,11.07
2023-03-10T19:30:39.236Z,10.99
2023-03-10T19:33:06.596Z,11.10
2023-03-10T19:35:33.931Z,11.16
2023-03-10T19:38:01.589Z,11.19
2023-03-10T19:40:29.027Z,11.13
2023-03-10T19:42:56.441Z,11.09
2023-03-10T19:45:24.240Z,10.89
2023-03-10T19:47:52.549Z,10.75
2023-03-10T19:50:20.132Z,10.72
2023-03-10T19:52:48.735Z,10.65
2023-03-10T19:55:22.831Z,10.73
2023-03-10T19:57:50.968Z,10.73
2023-03-10T20:00:24.881Z,10.72
2023-03-10T20:02:53.241Z,10.65
2023-03-10T20:05:20.917Z,10.67
2023-03-10T20:07:48.957Z,10.64
2023-03-10T20:10:16.982Z,10.58
2023-03-10T20:12:44.853Z,10.65
2023-03-10T20:15:12.169Z,10.69
2023-03-10T20:17:39.707Z,10.52
2023-03-10T20:20:10.761Z,10.30
2023-03-10T20:22:39.593Z,10.24
2023-03-10T20:25:07.776Z,10.13
2023-03-10T20:27:35.340Z,10.10
2023-03-10T20:30:08.881Z,10.01
2023-03-10T20:32:36.499Z,9.96
2023-03-10T20:35:04.452Z,10.03
2023-03-10T20:37:31.983Z,10.03
2023-03-10T20:39:59.227Z,10.22
2023-03-10T20:42:26.600Z,10.27
2023-03-10T20:44:53.877Z,10.25
2023-03-10T20:47:21.427Z,10.31
2023-03-10T20:49:48.838Z,10.34
2023-03-10T20:52:16.239Z,10.33
2023-03-10T20:54:43.510Z,10.41
2023-03-10T20:57:10.871Z,10.45
2023-03-10T20:59:38.409Z,10.58
2023-03-10T21:02:05.899Z,10.68
2023-03-10T21:04:33.227Z,10.54
2023-03-10T21:07:00.677Z,10.18
2023-03-10T21:09:28.036Z,10.16
2023-03-10T21:11:55.396Z,10.18
2023-03-10T21:14:22.728Z,10.31
2023-03-10T21:16:50.220Z,10.38
2023-03-10T21:19:17.802Z,10.31
2023-03-10T21:21:45.138Z,10.21
2023-03-10T21:24:12.396Z,10.14
2023-03-10T21:26:39.715Z,10.20
2023-03-10T21:29:07.174Z,10.21
2023-03-10T21:31:34.550Z,10.14
2023-03-10T21:34:01.787Z,10.11
2023-03-10T21:36:29.159Z,10.13
2023-03-10T21:38:56.784Z,10.18
2023-03-10T21:41:25.675Z,10.04
2023-03-10T21:43:56.523Z,10.03
2023-03-10T21:46:24.278Z,9.85
2023-03-10T21:48:52.455Z,9.83
2023-03-10T21:51:21.619Z,9.80
2023-03-10T21:53:49.393Z,9.68
2023-03-10T21:56:22.206Z,9.62
2023-03-10T21:58:49.608Z,9.73
2023-03-10T22:01:17.579Z,9.78
2023-03-10T22:03:44.976Z,9.70
2023-03-10T22:06:12.275Z,9.68
2023-03-10T22:08:39.584Z,9.61
2023-03-10T22:11:07.638Z,9.59
2023-03-10T22:13:35.738Z,9.56
2023-03-10T22:16:03.677Z,9.72
2023-03-10T22:18:31.104Z,9.76
2023-03-10T22:20:58.479Z,9.75
2023-03-10T22:23:25.869Z,9.78
2023-03-10T22:25:53.160Z,9.69
2023-03-10T22:28:20.460Z,9.75
2023-03-10T22:30:47.732Z,9.83
2023-03-10T22:33:15.122Z,9.96
2023-03-10T22:35:42.543Z,10.11
2023-03-10T22:38:09.875Z,9.97
2023-03-10T22:40:37.125Z,9.96
2023-03-10T22:43:04.491Z,10.04
2023-03-10T22:45:32.183Z,10.00
2023-03-10T22:48:01.247Z,10.14
2023-03-10T22:50:30.471Z,10.07
2023-03-10T22:52:58.762Z,10.17
2023-03-10T22:55:26.128Z,10.25
2023-03-10T22:57:53.827Z,10.42
2023-03-10T23:00:21.792Z,10.49
2023-03-10T23:02:49.588Z,10.59
2023-03-10T23:05:17.208Z,10.69
2023-03-10T23:07:44.696Z,10.68
2023-03-10T23:10:17.151Z,10.71
2023-03-10T23:12:44.658Z,10.79
2023-03-10T23:15:24.087Z,10.79
2023-03-10T23:17:52.441Z,10.85
2023-03-10T23:20:19.796Z,10.76
2023-03-10T23:22:47.313Z,10.72
2023-03-10T23:25:23.417Z,10.68
2023-03-10T23:27:50.845Z,10.61
2023-03-10T23:30:18.147Z,10.73
2023-03-10T23:32:46.295Z,10.82
2023-03-10T23:35:25.319Z,10.75
2023-03-10T23:37:52.684Z,10.89
2023-03-10T23:40:20.837Z,10.83
2023-03-10T23:42:48.349Z,10.78
2023-03-10T23:45:19.864Z,10.75
2023-03-10T23:47:47.453Z,10.78
2023-03-10T23:50:26.407Z,10.68
2023-03-10T23:52:53.781Z,10.73
2023-03-10T23:55:22.721Z,10.72
2023-03-10T23:57:50.253Z,10.82
